createdAt,value
2022-11-30T00:01:46.473Z,29.80
2022-11-30T00:04:22.725Z,27.63
2022-11-30T00:06:50.994Z,28.87
2022-11-30T00:09:24.382Z,28.57
2022-11-30T00:12:06.899Z,28.23
2022-11-30T00:14:34.743Z,25.90
2022-11-30T00:17:02.832Z,25.83
2022-11-30T00:19:38.814Z,27.50
2022-11-30T00:22:07.269Z,29.13
2022-11-30T00:24:37.372Z,28.13
2022-11-30T00:27:07.810Z,28.33
2022-11-30T00:29:37.174Z,28.80
2022-11-30T00:32:09.302Z,27.93
2022-11-30T00:34:38.670Z,26.73
2022-11-30T00:37:06.768Z,24.63
2022-11-30T00:39:46.907Z,24.87
2022-11-30T00:42:20.255Z,26.60
2022-11-30T00:44:48.571Z,26.23
2022-11-30T00:47:17.694Z,25.73
2022-11-30T00:49:45.762Z,27.23
2022-11-30T00:52:14.083Z,26.43
2022-11-30T00:54:41.952Z,25.53
2022-11-30T00:57:10.000Z,25.83
2022-11-30T00:59:39.636Z,27.77
2022-11-30T01:02:07.743Z,25.57
2022-11-30T01:04:35.663Z,27.90
2022-11-30T01:07:03.666Z,27.13
2022-11-30T01:09:31.760Z,26.57
2022-11-30T01:11:59.623Z,28.13
2022-11-30T01:14:28.080Z,29.23
2022-11-30T01:16:57.382Z,27.83
2022-11-30T01:19:25.967Z,29.60
2022-11-30T01:21:54.492Z,27.83
2022-11-30T01:24:23.122Z,26.97
2022-11-30T01:26:53.250Z,25.80
2022-11-30T01:29:25.949Z,26.27
2022-11-30T01:31:54.932Z,27.43
2022-11-30T01:34:24.294Z,25.80
2022-11-30T01:36:52.316Z,24.90
2022-11-30T01:39:20.399Z,27.27
2022-11-30T01:41:50.046Z,27.03
2022-11-30T01:47:43.090Z,25.47
2022-11-30T01:50:28.374Z,26.90
2022-11-30T01:56:10.059Z,28.13
2022-11-30T01:58:38.789Z,30.40
2022-11-30T02:01:08.777Z,31.33
2022-11-30T02:03:46.907Z,31.73
2022-11-30T02:15:18.684Z,33.60
2022-11-30T02:37:18.275Z,41.83
2022-11-30T02:39:47.309Z,40.83
2022-11-30T02:42:18.483Z,42.13
2022-11-30T02:44:50.132Z,41.57
2022-11-30T02:47:25.126Z,41.07
2022-11-30T02:50:01.829Z,42.07
2022-11-30T02:57:20.027Z,40.13
2022-11-30T03:13:58.400Z,41.87
2022-11-30T03:26:12.897Z,46.17
2022-11-30T03:28:52.850Z,41.33
2022-11-30T05:58:37.586Z,28.37
2022-11-30T06:01:06.812Z,30.07
2022-11-30T06:03:37.119Z,27.13
2022-11-30T06:07:05.770Z,27.93
2022-11-30T06:10:03.803Z,29.87
2022-11-30T06:12:32.114Z,30.57
2022-11-30T06:15:01.557Z,29.30
2022-11-30T06:17:30.848Z,30.93
2022-11-30T06:19:59.968Z,32.40
2022-11-30T06:22:28.441Z,31.60
2022-11-30T06:25:12.609Z,32.63
2022-11-30T06:27:49.080Z,34.13
2022-11-30T06:45:32.703Z,36.23
2022-11-30T06:48:00.864Z,35.40
2022-11-30T06:50:29.395Z,34.67
2022-11-30T06:52:58.362Z,35.53
2022-11-30T07:11:11.358Z,32.60
2022-11-30T07:13:39.685Z,33.13
2022-11-30T07:16:10.983Z,35.30
2022-11-30T07:18:39.623Z,33.43
2022-11-30T07:31:35.830Z,32.20
2022-11-30T07:34:06.885Z,32.97
2022-11-30T07:36:54.871Z,33.17
2022-11-30T07:39:33.812Z,32.90
2022-11-30T07:42:01.908Z,34.97
2022-11-30T07:44:33.760Z,34.73
2022-11-30T07:47:03.030Z,32.93
2022-11-30T07:49:31.032Z,32.67
2022-11-30T07:51:59.002Z,34.87
2022-11-30T07:54:27.858Z,32.33
2022-11-30T07:56:55.957Z,32.37
2022-11-30T07:59:24.192Z,34.73
2022-11-30T08:01:52.520Z,32.43
2022-11-30T08:04:25.964Z,33.43
2022-11-30T08:06:54.572Z,31.50
2022-11-30T08:09:23.848Z,30.93
2022-11-30T08:11:54.675Z,33.20
2022-11-30T08:14:23.867Z,31.00
2022-11-30T08:23:05.199Z,33.80
2022-11-30T08:25:37.839Z,31.97
2022-11-30T08:28:07.552Z,32.80
2022-11-30T08:30:37.893Z,35.63
2022-11-30T08:33:05.799Z,38.57
2022-11-30T08:35:33.675Z,43.87
2022-11-30T08:38:03.006Z,41.83
2022-11-30T08:40:31.164Z,42.17
2022-11-30T08:42:59.806Z,41.50
2022-11-30T08:45:27.627Z,38.93
2022-11-30T08:47:55.842Z,37.77
2022-11-30T08:50:23.759Z,37.47
2022-11-30T08:52:51.722Z,35.77
2022-11-30T08:55:20.863Z,34.60
2022-11-30T08:57:48.831Z,33.53
2022-11-30T09:00:17.345Z,31.80
2022-11-30T09:02:45.349Z,32.80
2022-11-30T09:05:13.408Z,31.90
2022-11-30T09:07:41.413Z,30.67
2022-11-30T09:10:09.995Z,29.20
2022-11-30T09:12:40.549Z,28.23
2022-11-30T09:15:09.862Z,26.47
2022-11-30T09:17:38.077Z,27.70
2022-11-30T09:20:07.937Z,27.17
2022-11-30T09:22:35.960Z,26.80
2022-11-30T09:25:03.839Z,26.30
2022-11-30T09:27:33.268Z,24.93
2022-11-30T09:30:02.514Z,26.50
2022-11-30T09:32:33.263Z,25.77
2022-11-30T09:35:01.191Z,24.43
2022-11-30T09:37:29.004Z,24.73
2022-11-30T09:39:56.869Z,25.23
2022-11-30T09:42:39.819Z,26.30
2022-11-30T09:45:15.158Z,26.33
2022-11-30T09:48:21.900Z,26.17
2022-11-30T09:50:51.826Z,25.10
2022-11-30T09:53:29.389Z,26.60
2022-11-30T09:55:59.908Z,25.83
2022-11-30T09:58:37.597Z,26.37
2022-11-30T10:01:15.580Z,26.57
2022-11-30T10:03:43.606Z,25.10
2022-11-30T10:06:25.459Z,25.63
2022-11-30T10:09:15.477Z,26.40
2022-11-30T10:11:53.643Z,25.57
2022-11-30T10:14:39.321Z,24.80
2022-11-30T10:17:24.231Z,25.67
2022-11-30T10:20:15.352Z,27.07
2022-11-30T10:23:03.187Z,25.00
2022-11-30T10:25:42.608Z,26.00
2022-11-30T10:28:45.657Z,25.57
2022-11-30T10:31:11.847Z,23.77
2022-11-30T10:33:50.741Z,25.47
2022-11-30T10:36:28.928Z,26.10
2022-11-30T10:39:03.768Z,24.60
2022-11-30T10:41:35.206Z,24.77
2022-11-30T10:44:08.530Z,24.40
2022-11-30T10:46:40.939Z,24.07
2022-11-30T10:49:16.326Z,25.03
2022-11-30T10:52:26.031Z,26.17
2022-11-30T10:55:42.292Z,26.57
2022-11-30T10:58:41.581Z,24.50
2022-11-30T11:01:46.572Z,25.87
2022-11-30T11:04:31.936Z,25.77
2022-11-30T11:07:15.832Z,24.50
2022-11-30T11:09:52.456Z,24.33
2022-11-30T11:12:43.511Z,25.87
2022-11-30T11:15:33.569Z,25.23
2022-11-30T11:18:27.205Z,25.90
2022-11-30T11:21:19.300Z,24.83
2022-11-30T11:23:51.094Z,25.67
2022-11-30T11:26:22.386Z,24.23
2022-11-30T11:28:55.046Z,25.27
2022-11-30T11:31:39.312Z,24.30
2022-11-30T11:34:25.097Z,25.63
2022-11-30T11:37:08.439Z,25.70
2022-11-30T11:39:36.688Z,25.50
2022-11-30T11:42:20.617Z,26.53
2022-11-30T11:44:52.804Z,25.47
2022-11-30T11:47:27.736Z,25.23
2022-11-30T11:50:31.756Z,29.63
2022-11-30T11:53:26.415Z,26.70
2022-11-30T11:55:59.732Z,25.67
2022-11-30T11:58:39.189Z,25.53
2022-11-30T12:01:38.690Z,25.13
2022-11-30T12:04:34.032Z,26.17
2022-11-30T12:07:13.766Z,26.37
2022-11-30T12:09:58.441Z,26.07
2022-11-30T12:12:26.354Z,25.73
2022-11-30T12:14:56.132Z,27.30
2022-11-30T12:17:40.030Z,26.43
2022-11-30T12:20:19.961Z,27.63
2022-11-30T12:23:12.750Z,26.00
2022-11-30T12:25:50.911Z,28.37
2022-11-30T12:28:28.071Z,26.90
2022-11-30T12:31:11.420Z,27.83
2022-11-30T12:33:56.148Z,27.67
2022-11-30T12:36:36.702Z,26.47
2022-11-30T12:39:10.167Z,26.97
2022-11-30T12:41:49.690Z,28.57
2022-11-30T12:44:30.038Z,26.37
2022-11-30T12:47:06.755Z,26.13
2022-11-30T12:49:50.647Z,26.03
2022-11-30T12:52:34.800Z,25.00
2022-11-30T12:55:15.219Z,27.37
2022-11-30T12:57:49.950Z,27.53
2022-11-30T13:00:21.387Z,28.23
2022-11-30T13:03:13.867Z,27.23
2022-11-30T13:05:47.841Z,31.03
2022-11-30T13:08:22.838Z,28.07
2022-11-30T13:10:55.633Z,28.40
2022-11-30T13:13:27.201Z,29.17
2022-11-30T13:15:56.735Z,29.17
2022-11-30T13:18:26.123Z,30.73
2022-11-30T13:21:03.223Z,29.67
2022-11-30T13:23:38.126Z,30.00
2022-11-30T13:26:15.451Z,31.17
2022-11-30T13:28:57.796Z,31.47
2022-11-30T13:31:28.561Z,31.13
2022-11-30T13:34:00.724Z,31.20
2022-11-30T13:36:33.769Z,30.50
2022-11-30T13:39:22.253Z,32.10
2022-11-30T13:41:53.266Z,32.60
2022-11-30T13:44:32.455Z,32.67
2022-11-30T13:47:01.714Z,31.90
2022-11-30T13:49:31.242Z,31.50
2022-11-30T13:52:21.976Z,31.57
2022-11-30T13:54:50.684Z,31.00
2022-11-30T13:57:35.272Z,31.20
2022-11-30T14:00:43.272Z,30.57
2022-11-30T14:03:25.668Z,31.50
2022-11-30T14:05:54.399Z,33.00
2022-11-30T14:08:40.009Z,34.53
2022-11-30T14:11:36.843Z,34.00
2022-11-30T14:14:45.416Z,34.50
2022-11-30T14:17:19.017Z,33.87
2022-11-30T14:19:49.127Z,36.33
2022-11-30T14:22:17.534Z,36.27
2022-11-30T14:24:47.689Z,35.73
2022-11-30T14:27:19.385Z,34.10
2022-11-30T14:29:53.374Z,35.03
2022-11-30T14:32:35.220Z,35.23
2022-11-30T14:35:09.367Z,36.17
2022-11-30T14:37:44.124Z,34.40
2022-11-30T14:40:19.935Z,35.17
2022-11-30T14:42:51.709Z,35.00
2022-11-30T14:45:25.620Z,34.80
2022-11-30T14:48:06.079Z,36.47
2022-11-30T14:50:34.973Z,35.90
2022-11-30T14:53:15.781Z,36.67
2022-11-30T14:55:50.796Z,36.10
2022-11-30T14:58:24.154Z,34.67
2022-11-30T15:00:55.917Z,34.77
2022-11-30T15:03:37.453Z,35.10
2022-11-30T15:06:09.308Z,35.73
2022-11-30T15:08:43.116Z,35.93
2022-11-30T15:11:14.504Z,37.27
2022-11-30T15:13:44.846Z,35.50
2022-11-30T15:16:20.512Z,35.30
2022-11-30T15:18:51.134Z,34.83
2022-11-30T15:21:23.888Z,34.93
2022-11-30T15:24:02.672Z,36.47
2022-11-30T15:26:35.034Z,36.20
2022-11-30T15:29:06.733Z,34.30
2022-11-30T15:31:37.333Z,36.80
2022-11-30T15:34:08.269Z,36.90
2022-11-30T15:36:38.399Z,36.37
2022-11-30T15:39:08.775Z,36.80
2022-11-30T15:41:37.145Z,36.30
2022-11-30T15:44:05.081Z,36.80
2022-11-30T15:46:39.823Z,35.47
2022-11-30T15:49:21.213Z,36.90
2022-11-30T15:51:59.453Z,37.03
2022-11-30T15:54:46.032Z,35.67
2022-11-30T15:57:14.070Z,34.63
2022-11-30T15:59:42.065Z,35.57
2022-11-30T16:02:27.520Z,37.57
2022-11-30T16:05:24.789Z,37.57
2022-11-30T16:07:55.497Z,36.77
2022-11-30T16:10:25.766Z,35.37
2022-11-30T16:12:55.454Z,35.27
2022-11-30T16:15:25.577Z,36.07
2022-11-30T16:17:54.821Z,38.80
2022-11-30T16:20:24.785Z,37.00
2022-11-30T16:22:52.804Z,38.03
2022-11-30T16:25:24.299Z,36.77
2022-11-30T16:27:52.686Z,36.33
2022-11-30T16:30:22.848Z,35.43
2022-11-30T16:32:51.233Z,37.47
2022-11-30T16:35:22.890Z,36.20
2022-11-30T16:37:55.729Z,35.20
2022-11-30T16:40:24.182Z,36.23
2022-11-30T16:42:52.749Z,35.57
2022-11-30T16:45:22.324Z,35.70
2022-11-30T16:47:50.862Z,34.63
2022-11-30T16:50:19.563Z,34.63
2022-11-30T16:52:47.753Z,33.50
2022-11-30T16:55:18.953Z,34.17
2022-11-30T16:57:47.252Z,34.30
2022-11-30T17:00:18.857Z,33.97
2022-11-30T17:02:54.166Z,35.73
2022-11-30T17:05:22.260Z,37.37
2022-11-30T17:07:50.382Z,37.60
2022-11-30T17:10:20.672Z,34.17
2022-11-30T17:12:48.804Z,35.40
2022-11-30T17:15:18.902Z,32.60
2022-11-30T17:17:47.051Z,31.40
2022-11-30T17:20:17.236Z,32.97
2022-11-30T17:22:47.600Z,32.43
2022-11-30T17:25:17.199Z,32.97
2022-11-30T17:27:47.249Z,32.77
2022-11-30T17:30:20.611Z,33.07
2022-11-30T17:32:49.058Z,35.50
2022-11-30T17:35:17.616Z,32.33
2022-11-30T17:37:45.529Z,31.17
2022-11-30T17:40:15.371Z,32.67
2022-11-30T17:42:43.646Z,31.47
2022-11-30T17:45:13.479Z,31.27
2022-11-30T17:47:41.878Z,30.93
2022-11-30T17:50:11.702Z,31.00
2022-11-30T17:52:42.718Z,30.40
2022-11-30T17:55:16.937Z,30.70
2022-11-30T17:57:55.855Z,29.77
2022-11-30T18:00:32.774Z,27.17
2022-11-30T18:03:01.793Z,27.23
2022-11-30T18:05:31.024Z,27.73
2022-11-30T18:08:03.212Z,27.43
2022-11-30T18:10:35.650Z,25.77
2022-11-30T18:13:05.840Z,26.40
2022-11-30T18:15:37.430Z,26.03
2022-11-30T18:18:07.188Z,26.60
2022-11-30T18:20:35.325Z,24.60
2022-11-30T18:23:03.417Z,28.10
2022-11-30T18:25:33.688Z,27.90
2022-11-30T18:28:01.809Z,26.07
2022-11-30T18:30:29.855Z,27.07
2022-11-30T18:32:59.325Z,27.17
2022-11-30T18:35:27.157Z,26.43
2022-11-30T18:37:55.145Z,24.93
2022-11-30T18:40:23.452Z,25.13
2022-11-30T18:42:51.267Z,25.33
2022-11-30T18:45:19.107Z,26.13
2022-11-30T18:47:46.816Z,25.43
2022-11-30T18:50:16.295Z,24.70
2022-11-30T18:52:43.998Z,26.13
2022-11-30T18:55:11.896Z,22.97
2022-11-30T18:57:39.691Z,25.07
2022-11-30T19:00:09.024Z,24.33
2022-11-30T19:02:36.910Z,23.00
2022-11-30T19:05:10.393Z,21.30
2022-11-30T19:07:46.858Z,22.67
2022-11-30T19:10:18.276Z,23.27
2022-11-30T19:12:46.626Z,22.43
2022-11-30T19:15:14.559Z,20.60
2022-11-30T19:17:42.304Z,19.80
2022-11-30T19:20:11.182Z,20.60
2022-11-30T19:22:39.033Z,19.87
2022-11-30T19:25:09.874Z,20.43
2022-11-30T19:27:38.272Z,19.93
2022-11-30T19:30:08.905Z,20.30
2022-11-30T19:32:36.885Z,20.53
2022-11-30T19:35:05.402Z,23.93
2022-11-30T19:37:33.180Z,20.57
2022-11-30T19:40:00.993Z,20.23
2022-11-30T19:42:32.039Z,22.03
2022-11-30T19:44:59.953Z,37.77
2022-11-30T19:47:27.716Z,27.37
2022-11-30T19:49:55.589Z,21.60
2022-11-30T19:52:23.380Z,19.67
2022-11-30T19:54:51.325Z,18.33
2022-11-30T19:57:19.201Z,18.00
2022-11-30T19:59:48.478Z,17.73
2022-11-30T20:02:16.411Z,17.77
2022-11-30T20:04:44.225Z,16.93
2022-11-30T20:07:13.388Z,17.93
2022-11-30T20:09:41.386Z,17.53
2022-11-30T20:12:09.258Z,17.97
2022-11-30T20:14:37.092Z,16.33
2022-11-30T20:17:06.467Z,16.10
2022-11-30T20:19:34.886Z,14.43
2022-11-30T20:22:05.889Z,14.53
2022-11-30T20:24:34.547Z,16.10
2022-11-30T20:27:05.579Z,14.87
2022-11-30T20:29:35.062Z,15.60
2022-11-30T20:32:05.841Z,15.70
2022-11-30T20:34:43.462Z,14.97
2022-11-30T20:37:11.785Z,16.03
2022-11-30T20:39:45.803Z,15.17
2022-11-30T20:42:14.433Z,15.00
2022-11-30T20:44:42.520Z,14.20
2022-11-30T20:47:11.259Z,13.07
2022-11-30T20:49:40.888Z,13.83
2022-11-30T20:52:08.956Z,13.47
2022-11-30T20:54:37.046Z,14.17
2022-11-30T20:57:05.070Z,14.20
2022-11-30T20:59:33.404Z,13.67
2022-11-30T21:02:03.449Z,13.30
2022-11-30T21:04:31.555Z,13.30
2022-11-30T21:07:00.916Z,13.13
2022-11-30T21:09:28.970Z,12.17
2022-11-30T21:11:57.145Z,11.60
2022-11-30T21:14:25.898Z,11.50
2022-11-30T21:16:54.044Z,11.43
2022-11-30T21:19:22.558Z,11.00
2022-11-30T21:21:51.001Z,11.13
2022-11-30T21:24:20.428Z,10.73
2022-11-30T21:26:48.429Z,9.77
2022-11-30T21:29:19.032Z,10.87
2022-11-30T21:31:47.284Z,10.13
2022-11-30T21:34:15.581Z,8.93
2022-11-30T21:36:43.804Z,8.90
2022-11-30T21:39:17.443Z,9.60
2022-11-30T21:41:49.522Z,9.30
2022-11-30T21:44:18.398Z,9.10
2022-11-30T21:46:49.420Z,9.07
2022-11-30T21:49:17.529Z,8.87
2022-11-30T21:51:45.818Z,8.93
2022-11-30T21:54:14.585Z,9.53
2022-11-30T21:56:44.689Z,11.60
2022-11-30T21:59:15.632Z,11.37
2022-11-30T22:01:45.588Z,10.83
2022-11-30T22:04:15.745Z,9.70
2022-11-30T22:06:45.320Z,8.57
2022-11-30T22:09:18.015Z,8.17
2022-11-30T22:11:46.992Z,8.63
2022-11-30T22:14:17.747Z,9.03
2022-11-30T22:16:46.081Z,9.77
2022-11-30T22:19:14.485Z,9.93
2022-11-30T22:21:48.292Z,9.53
2022-11-30T22:24:17.869Z,8.60
2022-11-30T22:26:46.511Z,9.77
2022-11-30T22:29:17.748Z,9.33
2022-11-30T22:31:47.798Z,9.47
2022-11-30T22:34:16.049Z,8.53
2022-11-30T22:36:45.735Z,8.50
2022-11-30T22:39:15.879Z,8.00
2022-11-30T22:41:45.419Z,8.40
2022-11-30T22:44:14.148Z,8.57
2022-11-30T22:46:44.578Z,7.90
2022-11-30T22:49:20.205Z,8.77
2022-11-30T22:51:49.648Z,8.50
2022-11-30T22:54:17.914Z,8.17
2022-11-30T22:56:46.710Z,7.90
2022-11-30T22:59:16.407Z,8.83
2022-11-30T23:01:47.666Z,8.57
2022-11-30T23:04:17.827Z,8.80
2022-11-30T23:06:47.528Z,8.40
2022-11-30T23:09:17.130Z,8.70
2022-11-30T23:11:45.784Z,8.00
2022-11-30T23:14:16.195Z,8.73
2022-11-30T23:16:45.949Z,8.23
2022-11-30T23:19:14.798Z,10.57
2022-11-30T23:21:47.627Z,11.53
2022-11-30T23:24:17.917Z,9.67
2022-11-30T23:26:46.474Z,8.80
2022-11-30T23:29:16.282Z,7.90
2022-11-30T23:31:46.436Z,8.10
2022-11-30T23:34:16.326Z,8.33
2022-11-30T23:36:44.362Z,7.47
2022-11-30T23:39:15.000Z,7.83
2022-11-30T23:41:43.991Z,7.50
2022-11-30T23:44:12.332Z,7.40
2022-11-30T23:46:41.102Z,7.63
2022-11-30T23:49:10.448Z,7.63
2022-11-30T23:51:38.439Z,7.33
2022-11-30T23:54:06.827Z,7.13
2022-11-30T23:56:35.079Z,7.13
2022-11-30T23:59:02.963Z,6.40
